Latest Weather Observations for Swanbourne

IDW60801

Issued at 11:34 am WST Thursday 17 August 2017 (issued every 30 minutes, with the page automatically refreshed every 10 minutes)

About weather observations | Map of weather stations | Latest weather observations for WA | Other Formats
Station Details ID: 009215 Name: SWANBOURNE Lat: -31.96 Lon: 115.76 Height: 40.96 m
Data from the previous 72 hours. | See also: Recent months at Swanbourne
Date/Time
WST
Temp
°C
App
Temp
°C
Dew
Point
°C
Rel
Hum
%
Delta-T
°C
Wind Press
QNH
hPa
Press
MSL
hPa
Rain since
9am
mm
Dir  Spd
km/h
Gust
km/h
Spd
kts
Gust
kts
17/11:30am 14.2 13.3 11.2 82 1.6 N 7 15 4 8 - - 0.8
17/11:00am 12.3 11.1 10.4 88 1.0 N 7 11 4 6 - - 0.8
17/10:30am 11.6 9.9 10.0 90 0.8 NNW 9 13 5 7 - - 0.6
17/10:00am 11.3 9.9 10.8 97 0.3 NE 9 15 5 8 - - 0.4
17/09:30am 9.6 7.2 8.8 95 0.4 NE 11 17 6 9 - - 0.4
17/09:00am 9.4 7.9 8.6 95 0.4 NNE 6 9 3 5 - - 4.6
17/08:30am 9.0 7.3 8.2 95 0.4 NNE 7 13 4 7 - - 4.2
17/08:00am 8.6 6.1 8.2 97 0.2 NNE 11 19 6 10 - - 4.2
17/07:30am 8.3 5.7 7.9 97 0.2 NNE 11 17 6 9 - - 4.0
17/07:00am 7.4 4.2 7.0 97 0.2 NE 13 19 7 10 - - 3.8
17/06:30am 7.4 4.6 6.8 96 0.3 ENE 11 17 6 9 - - 3.8
17/06:00am 7.6 4.7 6.7 94 0.4 E 11 15 6 8 - - 3.8
17/05:30am 7.6 5.5 6.5 93 0.5 NE 7 13 4 7 - - 2.4
17/05:00am 7.6 4.6 6.1 90 0.7 ENE 11 15 6 8 - - 1.4
17/04:30am 8.2 5.2 6.2 87 0.9 ENE 11 15 6 8 - - 1.4
17/04:00am 8.8 5.9 6.3 84 1.2 NE 11 19 6 10 - - 0.0
17/03:30am 8.5 5.8 5.6 82 1.3 E 9 13 5 7 - - 0.0
17/03:00am 8.8 6.1 5.4 79 1.5 ENE 9 13 5 7 - - 0.0
17/02:30am 9.4 6.7 5.8 78 1.6 NE 9 13 5 7 - - 0.0
17/02:00am 8.7 6.0 5.4 80 1.5 NE 9 13 5 7 - - 0.0
17/01:30am 8.7 5.8 4.9 77 1.7 ENE 9 15 5 8 - - 0.0
17/01:00am 8.9 6.3 4.3 73 2.0 E 7 9 4 5 - - 0.0
17/12:30am 9.3 7.3 4.3 71 2.2 ENE 4 11 2 6 - - 0.0
17/12:00am 13.2 9.1 4.6 56 4.0 SW 15 22 8 12 - - 0.0
 
Date/Time
WST
Temp
°C
App
Temp
°C
Dew
Point
°C
Rel
Hum
%
Delta-T
°C
Wind Press
QNH
hPa
Press
MSL
hPa
Rain since
9am
mm
Dir  Spd
km/h
Gust
km/h
Spd
kts
Gust
kts
16/11:30pm 10.9 9.2 6.1 72 2.2 SE 4 13 2 7 - - 0.0
16/11:00pm 10.4 8.3 5.6 72 2.2 E 6 7 3 4 - - 0.0
16/10:30pm 10.8 8.7 5.6 70 2.4 ESE 6 9 3 5 - - 0.0
16/10:00pm 11.8 8.8 5.9 67 2.8 SSE 11 19 6 10 - - 0.0
16/09:30pm 12.9 8.6 5.1 59 3.6 SW 17 22 9 12 - - 0.0
16/09:00pm 12.7 7.9 5.8 63 3.2 SSW 20 32 11 17 - - 0.0
16/08:30pm 12.0 8.8 5.2 63 3.1 S 11 17 6 9 - - 0.0
16/08:00pm 12.9 8.3 5.8 62 3.3 SSW 19 30 10 16 - - 0.0
16/07:30pm 13.3 8.4 3.9 53 4.3 SW 19 30 10 16 - - 0.0
16/07:00pm 12.9 9.4 5.3 60 3.5 S 13 22 7 12 - - 0.0
16/06:30pm 13.6 8.7 5.0 56 4.0 SW 20 37 11 20 - - 0.0
16/06:00pm 12.5 8.7 5.7 63 3.2 S 15 24 8 13 - - 0.0
16/05:30pm 12.4 6.7 6.5 67 2.8 S 26 43 14 23 - - 0.0
16/05:00pm 14.3 8.2 2.9 46 5.1 SW 24 35 13 19 - - 0.0
16/04:30pm 14.6 9.3 4.9 52 4.5 SW 22 33 12 18 - - 0.0
16/04:00pm 14.7 8.8 5.8 55 4.3 SW 26 39 14 21 - - 0.0
16/03:30pm 15.2 8.5 3.7 46 5.3 SW 28 37 15 20 - - 0.0
16/03:00pm 15.4 7.7 2.2 41 5.9 SW 32 48 17 26 - - 0.0
16/02:30pm 15.3 9.1 6.1 54 4.4 SSW 28 41 15 22 - - 0.0
16/02:00pm 15.9 9.5 5.2 49 5.1 SW 28 41 15 22 - - 0.0
16/01:30pm 15.5 8.5 3.9 46 5.4 SW 30 44 16 24 - - 0.0
16/01:00pm 15.6 8.3 4.6 48 5.2 SW 32 46 17 25 - - 0.0
16/12:30pm 15.3 8.0 4.4 48 5.1 SW 32 46 17 25 - - 0.0
16/12:00pm 14.5 7.5 4.2 50 4.7 SW 30 44 16 24 - - 0.0
16/11:30am 16.1 9.8 7.6 57 4.3 SW 30 50 16 27 - - 0.0
16/11:27am 16.0 9.6 7.0 55 4.4 SW 30 50 16 27 - - 0.0
16/11:00am 15.5 9.3 6.0 53 4.6 SW 28 43 15 23 - - 0.0
16/10:30am 14.8 9.0 6.1 56 4.2 SW 26 41 14 22 - - 0.0
16/10:00am 15.3 8.8 4.7 49 5.0 SW 28 46 15 25 - - 0.0
16/09:59am 15.2 8.6 4.3 48 5.1 SW 28 46 15 25 - - 0.0
16/09:30am 14.4 6.7 3.5 48 4.9 SW 33 46 18 25 - - 0.0
16/09:00am 14.8 7.6 4.8 51 4.7 WSW 32 48 17 26 - - 3.8
16/08:30am 14.1 7.0 5.7 57 4.0 SW 32 48 17 26 - - 3.8
16/08:00am 14.4 8.4 7.0 61 3.6 SW 28 41 15 22 - - 3.8
16/07:30am 13.6 7.0 6.0 60 3.6 SW 30 43 16 23 - - 3.8
16/07:00am 13.3 5.9 6.9 65 3.1 SW 35 50 19 27 - - 3.8
16/06:30am 13.2 5.8 8.3 72 2.4 SW 37 57 20 31 - - 3.8
16/06:06am 12.4 6.2 10.0 85 1.2 SSW 33 52 18 28 - - 3.6
16/06:00am 12.9 6.4 10.4 85 1.3 SW 35 52 19 28 - - 3.6
16/05:47am 12.3 7.2 10.7 90 0.8 SW 28 46 15 25 - - 3.6
16/05:30am 12.7 8.2 11.3 91 0.7 SW 26 41 14 22 - - 3.2
16/05:19am 12.8 7.7 10.7 87 1.1 SW 28 54 15 29 - - 3.0
16/05:00am 13.5 9.8 11.4 87 1.1 SW 22 37 12 20 - - 2.2
16/04:33am 13.3 8.0 11.2 87 1.1 WSW 30 48 16 26 - - 2.2
16/04:30am 13.0 7.2 10.7 86 1.2 WSW 32 48 17 26 - - 2.2
16/04:06am 14.3 8.8 10.5 78 2.0 W 30 54 16 29 - - 2.0
16/04:00am 14.2 8.9 10.0 76 2.2 W 28 43 15 23 - - 2.0
16/03:30am 13.7 8.1 10.1 79 1.9 W 30 43 16 23 - - 2.0
16/03:00am 12.5 8.9 10.4 87 1.1 W 20 30 11 16 - - 2.0
16/02:30am 14.3 9.4 10.1 76 2.2 W 26 39 14 21 - - 1.4
16/02:00am 14.4 9.9 10.2 76 2.2 W 24 39 13 21 - - 1.4
16/01:30am 13.2 9.6 9.8 80 1.7 W 19 30 10 16 - - 1.4
16/01:00am 14.0 8.7 10.0 77 2.1 WSW 28 41 15 22 - - 1.2
16/12:30am 13.4 8.1 9.8 79 1.9 W 28 43 15 23 - - 1.2
16/12:00am 14.1 9.1 9.5 74 2.4 WSW 26 39 14 21 - - 1.2
 
Date/Time
WST
Temp
°C
App
Temp
°C
Dew
Point
°C
Rel
Hum
%
Delta-T
°C
Wind Press
QNH
hPa
Press
MSL
hPa
Rain since
9am
mm
Dir  Spd
km/h
Gust
km/h
Spd
kts
Gust
kts
15/11:30pm 13.1 8.4 10.5 84 1.4 WNW 26 44 14 24 - - 1.2
15/11:00pm 12.9 9.2 10.3 84 1.3 WSW 20 30 11 16 - - 1.2
15/10:30pm 13.4 9.7 10.2 81 1.7 WSW 20 35 11 19 - - 1.0
15/10:00pm 14.1 9.1 9.5 74 2.4 WSW 26 37 14 20 - - 0.4
15/09:30pm 13.7 8.6 9.2 74 2.3 WSW 26 37 14 20 - - 0.4
15/09:00pm 13.1 9.4 10.3 83 1.5 W 20 33 11 18 - - 0.4
15/08:45pm 14.2 8.8 9.6 74 2.4 WSW 28 52 15 28 - - 0.4
15/08:30pm 13.8 8.0 9.6 76 2.2 WSW 30 41 16 22 - - 0.4
15/08:00pm 13.4 8.4 10.9 85 1.3 WSW 28 46 15 25 - - 0.4
15/07:30pm 13.6 8.3 10.0 79 1.9 WSW 28 48 15 26 - - 0.2
15/07:29pm 13.8 8.5 9.8 77 2.1 WSW 28 48 15 26 - - 0.2
15/07:00pm 13.8 8.0 9.6 76 2.2 WSW 30 43 16 23 - - 0.2
15/06:30pm 13.6 8.4 8.7 72 2.5 WSW 26 37 14 20 - - 0.2
15/06:00pm 13.9 7.9 8.7 71 2.6 WSW 30 46 16 25 - - 0.2
15/05:30pm 14.7 9.2 7.7 63 3.5 WSW 26 35 14 19 - - 0.2
15/05:00pm 14.8 9.1 6.6 58 4.0 WSW 26 37 14 20 - - 0.2
15/04:30pm 15.6 9.8 8.1 61 3.8 WSW 28 41 15 22 - - 0.2
15/04:00pm 14.4 8.0 8.4 67 3.0 WSW 32 44 17 24 - - 0.2
15/03:30pm 15.2 9.1 8.4 64 3.4 WSW 30 54 16 29 - - 0.0
15/03:29pm 15.4 9.7 8.4 63 3.5 W 28 48 15 26 - - 0.0
15/03:00pm 16.0 9.3 7.5 57 4.2 WSW 32 46 17 25 - - 0.0
15/02:30pm 16.7 10.6 6.8 52 4.9 WSW 28 39 15 21 - - 0.0
15/02:00pm 16.7 10.8 7.4 54 4.7 WSW 28 39 15 21 - - 0.0
15/01:37pm 16.5 10.2 7.4 55 4.5 WSW 30 48 16 26 - - 0.0
15/01:30pm 16.1 9.3 7.8 58 4.2 WSW 33 46 18 25 - - 0.0
15/01:00pm 16.8 9.6 6.0 49 5.3 WSW 33 48 18 26 - - 0.0
15/12:30pm 16.7 9.8 7.4 54 4.7 WSW 33 48 18 26 - - 0.0
15/12:00pm 16.4 10.1 7.3 55 4.5 WSW 30 44 16 24 - - 0.0
15/11:38am 15.2 8.1 6.2 55 4.4 WSW 33 54 18 29 - - 0.0
15/11:30am 16.0 9.0 8.5 61 3.8 WSW 35 52 19 28 - - 0.0
15/11:00am 14.9 8.1 7.9 63 3.5 WSW 33 52 18 28 - - 0.0
15/10:56am 15.8 9.1 8.1 60 3.9 WSW 33 52 18 28 - - 0.0
15/10:30am 14.6 9.0 8.8 68 2.9 SW 28 41 15 22 - - 0.0
15/10:03am 15.4 8.0 8.2 62 3.6 WSW 37 65 20 35 - - 0.0
15/10:00am 15.9 8.9 6.9 55 4.4 WSW 33 50 18 27 - - 0.0
15/09:36am 15.3 8.6 8.1 62 3.6 SW 33 54 18 29 - - 0.0
15/09:30am 15.4 8.3 7.9 61 3.8 WSW 35 48 19 26 - - 0.0
15/09:05am 15.6 8.7 7.1 57 4.2 WSW 33 56 18 30 - - 0.0
15/09:00am 15.3 8.2 6.6 56 4.2 WSW 33 46 18 25 - - 4.0
15/08:44am 14.8 7.6 5.9 55 4.3 WSW 33 54 18 29 - - 4.0
15/08:30am 14.5 7.2 7.3 62 3.5 WSW 35 50 19 27 - - 4.0
15/08:13am 13.4 6.5 7.4 67 2.9 SW 33 52 18 28 - - 4.0
15/08:00am 14.5 7.4 6.3 58 4.0 WSW 33 48 18 26 - - 4.0
15/07:30am 14.4 6.7 7.0 61 3.6 WSW 37 52 20 28 - - 4.0
15/07:13am 14.1 7.8 7.4 64 3.3 WSW 30 48 16 26 - - 4.0
15/07:00am 13.3 6.5 6.9 65 3.1 W 32 46 17 25 - - 4.0
15/06:38am 13.7 4.8 6.8 63 3.3 WSW 43 63 23 34 - - 4.0
15/06:30am 14.1 6.2 6.2 59 3.8 WSW 37 54 20 29 - - 4.0
15/06:04am 13.9 6.7 7.7 66 3.1 WSW 35 54 19 29 - - 4.0
15/06:00am 14.2 6.6 7.5 64 3.3 WSW 37 54 20 29 - - 4.0
15/05:42am 14.2 6.1 7.0 62 3.5 WSW 39 57 21 31 - - 4.0
15/05:30am 14.2 5.2 6.6 60 3.7 WSW 43 59 23 32 - - 4.0
15/05:15am 14.2 6.6 7.5 64 3.3 WSW 37 57 20 31 - - 4.0
15/05:00am 14.1 6.5 7.6 65 3.2 W 37 52 20 28 - - 4.0
15/04:31am 13.9 6.2 7.0 63 3.4 WSW 37 56 20 30 - - 4.0
15/04:30am 13.9 5.8 7.0 63 3.4 WSW 39 56 21 30 - - 4.0
15/04:00am 12.4 3.6 7.9 74 2.2 WSW 44 67 24 36 - - 4.0
15/03:54am 12.4 3.5 7.7 73 2.3 WSW 44 70 24 38 - - 4.0
15/03:52am 12.9 4.0 7.8 71 2.5 WSW 44 70 24 38 - - 4.0
15/03:36am 13.0 5.6 8.5 74 2.2 W 37 59 20 32 - - 4.0
15/03:30am 12.6 4.4 8.1 74 2.2 W 41 57 22 31 - - 4.0
15/03:00am 13.9 6.0 7.7 66 3.1 WSW 39 57 21 31 - - 3.8
15/02:30am 13.4 4.8 8.0 70 2.7 WSW 43 61 23 33 - - 3.8
15/02:16am 13.9 6.4 7.9 67 3.0 W 37 57 20 31 - - 3.8
15/02:00am 13.5 6.4 9.4 76 2.1 W 37 56 20 30 - - 3.8
15/01:30am 12.5 5.8 9.5 82 1.5 W 35 57 19 31 - - 3.6
15/01:01am 13.9 6.1 8.3 69 2.8 W 39 57 21 31 - - 2.8
15/01:00am 13.8 5.6 8.2 69 2.8 W 41 57 22 31 - - 2.8
15/12:35am 14.5 6.6 8.0 65 3.2 W 39 57 21 31 - - 2.6
15/12:30am 14.5 6.3 8.2 66 3.2 W 41 56 22 30 - - 2.6
15/12:20am 13.8 6.7 9.5 75 2.2 W 37 57 20 31 - - 2.6
15/12:00am 14.9 7.8 9.5 70 2.8 W 37 54 20 29 - - 2.4
 
Date/Time
WST
Temp
°C
App
Temp
°C
Dew
Point
°C
Rel
Hum
%
Delta-T
°C
Wind Press
QNH
hPa
Press
MSL
hPa
Rain since
9am
mm
Dir  Spd
km/h
Gust
km/h
Spd
kts
Gust
kts
14/11:56pm 14.7 8.0 9.5 71 2.7 W 35 54 19 29 - - 2.4
14/11:30pm 15.1 7.9 9.2 68 3.0 W 37 54 20 29 - - 2.2
14/11:11pm 13.9 7.7 9.5 75 2.3 WNW 32 54 17 29 - - 2.2
14/11:00pm 13.4 7.6 9.5 77 2.0 WNW 30 39 16 21 - - 2.2
14/10:35pm 13.9 7.6 8.9 72 2.5 W 32 59 17 32 - - 2.2
14/10:30pm 14.3 7.8 8.0 66 3.1 W 32 46 17 25 - - 2.0
14/10:08pm 13.1 4.9 8.2 72 2.4 W 41 67 22 36 - - 2.0
14/10:06pm 13.1 4.6 8.4 73 2.3 W 43 67 23 36 - - 2.0
14/10:00pm 13.6 6.2 8.2 70 2.7 W 37 67 20 36 - - 2.0
14/09:56pm 14.3 7.5 9.3 72 2.6 WSW 35 56 19 30 - - 2.0
14/09:48pm 14.9 8.1 9.3 69 2.9 W 35 50 19 27 - - 2.0
14/09:31pm 14.9 7.7 9.3 69 2.9 W 37 57 20 31 - - 2.0
14/09:30pm 15.0 7.5 9.4 69 2.9 W 39 57 21 31 - - 2.0
14/09:16pm 15.0 7.8 9.1 68 3.0 W 37 56 20 30 - - 2.0
14/09:00pm 14.2 7.5 9.6 74 2.4 W 35 54 19 29 - - 2.0
14/08:30pm 14.4 6.7 8.6 68 2.9 W 39 61 21 33 - - 1.8
14/08:19pm 15.1 7.7 9.7 70 2.8 W 39 59 21 32 - - 1.8
14/08:18pm 15.2 8.0 9.3 68 3.0 W 37 50 20 27 - - 1.8
14/08:03pm 14.5 8.5 10.1 75 2.3 WNW 32 52 17 28 - - 1.8
14/08:00pm 14.7 8.1 10.1 74 2.4 WNW 35 52 19 28 - - 1.8
14/07:30pm 13.0 5.7 8.9 76 2.1 WNW 37 59 20 32 - - 1.8
14/07:00pm 15.1 6.7 9.0 67 3.1 W 43 65 23 35 - - 1.4
14/06:57pm 15.7 7.8 8.0 60 3.9 W 39 65 21 35 - - 1.4
14/06:30pm 15.4 7.9 7.9 61 3.8 W 37 56 20 30 - - 1.4
14/06:00pm 14.9 9.1 9.5 70 2.8 W 30 50 16 27 - - 1.4
14/05:30pm 15.6 8.7 8.8 64 3.5 W 35 72 19 39 - - 1.2
14/05:29pm 15.8 8.7 8.1 60 3.9 W 35 72 19 39 - - 1.2
14/05:00pm 15.9 8.9 8.6 62 3.7 W 35 48 19 26 - - 1.2
14/04:30pm 15.8 8.4 8.3 61 3.8 W 37 56 20 30 - - 1.2
14/04:06pm 16.2 9.1 7.9 58 4.2 W 35 54 19 29 - - 1.2
14/04:00pm 16.6 9.6 8.3 58 4.2 W 35 50 19 27 - - 1.2
14/03:30pm 16.3 8.6 7.0 54 4.6 WNW 37 54 20 29 - - 1.2
14/03:00pm 17.2 8.6 6.7 50 5.2 W 41 59 22 32 - - 1.2
14/02:53pm 17.0 8.9 6.8 51 5.1 W 39 59 21 32 - - 1.2
14/02:30pm 17.1 9.5 7.5 53 4.8 W 37 52 20 28 - - 1.2
14/02:00pm 16.8 7.8 6.6 51 5.0 W 43 61 23 33 - - 1.2
14/01:30pm 17.1 8.1 7.2 52 5.0 W 44 67 24 36 - - 1.2
14/01:00pm 16.9 7.6 9.3 61 4.0 W 48 69 26 37 - - 1.2
14/12:30pm 15.8 7.9 11.4 75 2.4 W 44 67 24 36 - - 1.2
14/12:06pm 17.1 9.0 10.9 67 3.3 W 44 65 24 35 - - 1.0
14/12:00pm 16.3 8.5 11.0 71 2.8 W 43 61 23 33 - - 1.0
14/11:35am 16.3 9.7 12.7 79 2.0 W 39 61 21 33 - - 1.0

Other Formats:

Comma delimited format used in spreadsheet applications
http://www.bom.gov.au/fwo/IDW60801/IDW60801.94614.axf

JavaScript Object Notation format (JSON) in row-major order
http://www.bom.gov.au/fwo/IDW60801/IDW60801.94614.json